createdAt,value
2019-05-18T00:00:20.621Z,99.99
2019-05-18T00:01:20.609Z,99.99
2019-05-18T00:02:20.607Z,99.99
2019-05-18T00:03:20.601Z,99.99
2019-05-18T00:04:20.594Z,99.99
2019-05-18T00:05:20.588Z,99.99
2019-05-18T00:06:20.574Z,99.99
2019-05-18T00:07:20.566Z,99.99
2019-05-18T00:08:20.563Z,99.99
2019-05-18T00:09:20.551Z,99.99
2019-05-18T00:10:20.546Z,99.99
2019-05-18T00:11:20.538Z,99.99
2019-05-18T00:12:20.533Z,99.99
2019-05-18T00:13:23.269Z,99.99
2019-05-18T00:14:20.512Z,99.99
2019-05-18T00:15:20.508Z,99.99
2019-05-18T00:16:20.501Z,99.99
2019-05-18T00:17:25.405Z,99.99
2019-05-18T00:18:20.479Z,99.99
2019-05-18T00:19:20.474Z,99.99
2019-05-18T00:20:35.939Z,99.99
2019-05-18T00:21:20.460Z,99.99
2019-05-18T00:22:20.459Z,99.99
2019-05-18T00:23:20.443Z,99.99
2019-05-18T00:24:20.436Z,99.99
2019-05-18T00:25:20.423Z,99.99
2019-05-18T00:26:20.418Z,99.99
2019-05-18T00:27:20.412Z,99.99
2019-05-18T00:28:20.400Z,99.99
2019-05-18T00:29:20.399Z,99.99
2019-05-18T00:30:20.384Z,99.99
2019-05-18T00:31:20.378Z,99.99
2019-05-18T00:32:20.372Z,99.99
2019-05-18T00:33:20.379Z,99.99
2019-05-18T00:34:20.351Z,99.99
2019-05-18T00:35:20.346Z,99.85
2019-05-18T00:36:20.339Z,99.46
2019-05-18T00:37:21.012Z,99.75
2019-05-18T00:38:20.323Z,99.56
2019-05-18T00:39:20.313Z,99.46
2019-05-18T00:40:20.307Z,99.66
2019-05-18T00:41:20.300Z,99.37
2019-05-18T00:42:20.291Z,99.66
2019-05-18T00:43:20.279Z,99.37
2019-05-18T00:44:20.275Z,99.66
2019-05-18T00:45:20.283Z,99.85
2019-05-18T00:46:20.258Z,99.75
2019-05-18T00:47:20.262Z,99.99
2019-05-18T00:48:20.244Z,99.95
2019-05-18T00:49:20.232Z,99.99
2019-05-18T00:50:20.226Z,99.75
2019-05-18T00:51:23.147Z,99.75
2019-05-18T00:52:20.208Z,99.32
2019-05-18T00:53:20.206Z,99.75
2019-05-18T00:54:20.201Z,99.41
2019-05-18T00:55:20.188Z,99.27
2019-05-18T00:56:20.179Z,99.99
2019-05-18T00:57:20.186Z,99.99
2019-05-18T00:58:20.158Z,99.99
2019-05-18T00:59:20.154Z,99.99
2019-05-18T01:00:20.146Z,99.75
2019-05-18T01:01:20.135Z,99.99
2019-05-18T01:02:20.126Z,99.22
2019-05-18T01:03:20.122Z,99.70
2019-05-18T01:04:20.112Z,99.99
2019-05-18T01:05:20.108Z,99.99
2019-05-18T01:06:20.097Z,99.99
2019-05-18T01:07:20.087Z,99.99
2019-05-18T01:08:20.083Z,99.89
2019-05-18T01:09:20.071Z,99.70
2019-05-18T01:10:20.075Z,99.13
2019-05-18T01:11:20.057Z,99.99
2019-05-18T01:12:20.047Z,99.60
2019-05-18T01:13:20.039Z,99.13
2019-05-18T01:14:20.037Z,99.32
2019-05-18T01:15:20.024Z,99.60
2019-05-18T01:16:20.023Z,99.80
2019-05-18T01:17:20.011Z,99.99
2019-05-18T01:18:20.010Z,99.99
2019-05-18T01:19:19.993Z,99.99
2019-05-18T01:20:19.987Z,99.99
2019-05-18T01:21:19.976Z,99.99
2019-05-18T01:22:19.966Z,99.99
2019-05-18T01:23:19.959Z,99.99
2019-05-18T01:24:19.954Z,99.99
2019-05-18T01:25:19.948Z,99.70
2019-05-18T01:26:19.939Z,99.99
2019-05-18T01:27:19.924Z,99.99
2019-05-18T01:28:19.919Z,99.99
2019-05-18T01:29:19.915Z,99.99
2019-05-18T01:30:19.898Z,99.99
2019-05-18T01:31:19.897Z,99.99
2019-05-18T01:32:19.892Z,99.99
2019-05-18T01:33:19.877Z,99.99
2019-05-18T01:34:19.865Z,99.99
2019-05-18T01:35:19.865Z,99.99
2019-05-18T01:36:19.854Z,99.99
2019-05-18T01:37:19.854Z,99.99
2019-05-18T01:38:19.842Z,99.99
2019-05-18T01:39:19.830Z,99.99
2019-05-18T01:40:20.538Z,99.99
2019-05-18T01:41:21.558Z,99.99
2019-05-18T01:42:19.802Z,99.99
2019-05-18T01:43:19.791Z,99.99
2019-05-18T01:44:19.789Z,99.99
2019-05-18T01:45:19.785Z,99.99
2019-05-18T01:46:19.770Z,99.99
2019-05-18T01:47:19.760Z,99.99
2019-05-18T01:48:19.768Z,99.99
2019-05-18T01:49:19.743Z,99.99
2019-05-18T01:50:19.736Z,99.99
2019-05-18T01:51:19.729Z,99.99
2019-05-18T01:52:19.725Z,99.99
2019-05-18T01:53:19.721Z,99.99
2019-05-18T01:54:19.701Z,99.99
2019-05-18T01:55:19.697Z,99.99
2019-05-18T01:56:19.687Z,99.99
2019-05-18T01:57:19.675Z,99.99
2019-05-18T01:58:19.681Z,99.99
2019-05-18T01:59:19.677Z,99.99
2019-05-18T02:00:19.660Z,99.99
2019-05-18T02:01:19.648Z,99.99
2019-05-18T02:02:19.658Z,99.99
2019-05-18T02:03:19.627Z,99.99
2019-05-18T02:04:19.622Z,99.99
2019-05-18T02:05:19.623Z,99.70
2019-05-18T02:06:19.605Z,99.70
2019-05-18T02:07:19.620Z,99.80
2019-05-18T02:08:19.583Z,99.13
2019-05-18T02:09:19.619Z,99.70
2019-05-18T02:10:19.599Z,99.89
2019-05-18T02:11:19.564Z,99.41
2019-05-18T02:12:19.560Z,99.32
2019-05-18T02:13:19.542Z,99.41
2019-05-18T02:14:19.537Z,99.51
2019-05-18T02:15:19.531Z,98.85
2019-05-18T02:16:19.520Z,99.60
2019-05-18T02:17:19.520Z,99.80
2019-05-18T02:18:28.658Z,99.22
2019-05-18T02:19:19.497Z,99.70
2019-05-18T02:20:19.501Z,99.99
2019-05-18T02:21:19.481Z,99.99
2019-05-18T02:22:19.471Z,99.99
2019-05-18T02:23:19.461Z,99.99
2019-05-18T02:24:19.456Z,99.99
2019-05-18T02:25:19.451Z,99.99
2019-05-18T02:26:19.438Z,99.99
2019-05-18T02:27:19.428Z,99.99
2019-05-18T02:28:19.426Z,99.99
2019-05-18T02:29:19.415Z,99.99
2019-05-18T02:30:19.408Z,99.99
2019-05-18T02:31:19.405Z,99.99
2019-05-18T02:32:19.399Z,99.75
2019-05-18T02:33:19.378Z,99.55
2019-05-18T02:34:19.372Z,99.99
2019-05-18T02:35:19.364Z,99.37
2019-05-18T02:36:19.362Z,99.46
2019-05-18T02:37:19.348Z,99.27
2019-05-18T02:38:19.358Z,99.27
2019-05-18T02:39:19.324Z,99.37
2019-05-18T02:40:19.321Z,99.99
2019-05-18T02:41:19.309Z,99.99
2019-05-18T02:42:19.307Z,99.99
2019-05-18T02:43:19.296Z,99.99
2019-05-18T02:44:19.289Z,99.99
2019-05-18T02:45:19.281Z,99.99
2019-05-18T02:46:19.283Z,99.99
2019-05-18T02:47:19.263Z,99.99
2019-05-18T02:48:19.260Z,99.99
2019-05-18T02:49:19.251Z,99.99
2019-05-18T02:50:19.238Z,99.55
2019-05-18T02:51:19.235Z,99.18
2019-05-18T02:52:19.225Z,98.13
2019-05-18T02:53:19.237Z,98.60
2019-05-18T02:54:19.207Z,97.46
2019-05-18T02:55:19.201Z,97.84
2019-05-18T02:56:19.199Z,97.17
2019-05-18T02:57:19.178Z,96.98
2019-05-18T02:58:19.170Z,97.17
2019-05-18T02:59:19.165Z,97.17
2019-05-18T03:00:19.153Z,97.65
2019-05-18T03:01:19.152Z,97.36
2019-05-18T03:02:19.135Z,97.36
2019-05-18T03:03:19.134Z,98.89
2019-05-18T03:04:19.125Z,98.70
2019-05-18T03:05:19.110Z,98.89
2019-05-18T03:06:19.103Z,98.99
2019-05-18T03:07:19.098Z,97.84
2019-05-18T03:08:19.087Z,97.94
2019-05-18T03:09:19.082Z,97.84
2019-05-18T03:10:19.066Z,98.32
2019-05-18T03:11:19.154Z,98.89
2019-05-18T03:12:19.051Z,99.18
2019-05-18T03:13:19.043Z,99.46
2019-05-18T03:14:20.590Z,99.18
2019-05-18T03:15:19.031Z,99.46
2019-05-18T03:16:19.019Z,99.27
2019-05-18T03:17:19.011Z,97.94
2019-05-18T03:18:19.005Z,96.89
2019-05-18T03:19:18.992Z,96.51
2019-05-18T03:20:18.986Z,96.80
2019-05-18T03:21:18.976Z,96.51
2019-05-18T03:22:18.970Z,96.98
2019-05-18T03:23:18.962Z,97.36
2019-05-18T03:24:18.961Z,96.89
2019-05-18T03:25:18.945Z,97.94
2019-05-18T03:26:18.935Z,99.99
2019-05-18T03:27:18.952Z,99.65
2019-05-18T03:28:18.919Z,99.37
2019-05-18T03:29:18.908Z,98.41
2019-05-18T03:30:18.901Z,99.46
2019-05-18T03:31:18.901Z,99.55
2019-05-18T03:32:18.904Z,98.89
2019-05-18T03:33:18.874Z,97.08
2019-05-18T03:34:18.864Z,97.27
2019-05-18T03:35:18.857Z,98.03
2019-05-18T03:36:18.854Z,97.46
2019-05-18T03:37:18.841Z,97.84
2019-05-18T03:38:18.833Z,98.03
2019-05-18T03:39:18.823Z,98.99
2019-05-18T03:40:18.820Z,99.75
2019-05-18T03:41:18.805Z,99.99
2019-05-18T03:42:18.801Z,97.94
2019-05-18T03:43:18.792Z,97.60
2019-05-18T03:44:18.785Z,96.75
2019-05-18T03:45:18.772Z,97.03
2019-05-18T03:46:18.785Z,96.08
2019-05-18T03:47:18.759Z,95.70
2019-05-18T03:48:18.756Z,95.70
2019-05-18T03:49:26.801Z,96.08
2019-05-18T03:50:18.735Z,96.84
2019-05-18T03:51:18.729Z,97.51
2019-05-18T03:52:18.708Z,96.94
2019-05-18T03:53:18.709Z,96.08
2019-05-18T03:54:18.695Z,96.36
2019-05-18T03:55:18.687Z,95.70
2019-05-18T03:56:18.681Z,95.98
2019-05-18T03:57:18.670Z,96.17
2019-05-18T03:58:18.662Z,98.55
2019-05-18T03:59:18.660Z,96.94
2019-05-18T04:00:18.644Z,96.36
2019-05-18T04:01:18.646Z,96.17
2019-05-18T04:02:19.595Z,95.79
2019-05-18T04:03:18.626Z,95.89
2019-05-18T04:04:18.774Z,95.70
2019-05-18T04:05:18.609Z,95.89
2019-05-18T04:06:18.598Z,95.89
2019-05-18T04:07:18.583Z,95.70
2019-05-18T04:08:18.578Z,95.98
2019-05-18T04:09:18.568Z,96.65
2019-05-18T04:10:18.560Z,96.65
2019-05-18T04:11:18.561Z,97.13
2019-05-18T04:12:18.545Z,96.94
2019-05-18T04:13:18.534Z,96.08
2019-05-18T04:14:18.533Z,96.94
2019-05-18T04:15:18.538Z,96.55
2019-05-18T04:16:18.510Z,96.65
2019-05-18T04:17:18.505Z,96.84
2019-05-18T04:18:18.490Z,96.65
2019-05-18T04:19:18.494Z,95.98
2019-05-18T04:20:18.488Z,95.89
2019-05-18T04:21:18.467Z,97.03
2019-05-18T04:22:18.465Z,97.41
2019-05-18T04:23:18.448Z,96.98
2019-05-18T04:24:18.447Z,95.89
2019-05-18T04:25:18.437Z,95.70
2019-05-18T04:26:18.417Z,96.32
2019-05-18T04:27:18.412Z,95.65
2019-05-18T04:28:18.407Z,96.03
2019-05-18T04:29:18.399Z,96.22
2019-05-18T04:30:18.391Z,96.03
2019-05-18T04:31:18.379Z,96.51
2019-05-18T04:32:18.370Z,96.51
2019-05-18T04:33:18.374Z,97.17
2019-05-18T04:34:18.348Z,97.46
2019-05-18T04:35:18.343Z,98.51
2019-05-18T04:36:18.345Z,98.03
2019-05-18T04:37:18.327Z,99.99
2019-05-18T04:38:18.316Z,99.75
2019-05-18T04:39:18.311Z,98.79
2019-05-18T04:40:18.305Z,98.41
2019-05-18T04:41:18.309Z,98.70
2019-05-18T04:42:18.284Z,99.99
2019-05-18T04:43:18.280Z,99.99
2019-05-18T04:44:18.276Z,99.99
2019-05-18T04:45:18.258Z,99.99
2019-05-18T04:46:18.256Z,99.75
2019-05-18T04:47:18.249Z,98.89
2019-05-18T04:48:18.247Z,99.37
2019-05-18T04:49:18.231Z,99.55
2019-05-18T04:50:18.221Z,99.99
2019-05-18T04:51:18.210Z,99.99
2019-05-18T04:52:18.206Z,99.99
2019-05-18T04:53:18.197Z,99.99
2019-05-18T04:54:18.184Z,99.99
2019-05-18T04:55:18.177Z,99.99
2019-05-18T04:56:18.168Z,99.99
2019-05-18T04:57:18.162Z,99.99
2019-05-18T04:58:18.170Z,99.99
2019-05-18T04:59:18.146Z,99.99
2019-05-18T05:00:18.134Z,99.99
2019-05-18T05:01:18.131Z,99.99
2019-05-18T05:02:18.125Z,99.99
2019-05-18T05:03:18.111Z,99.99
2019-05-18T05:04:18.110Z,99.99
2019-05-18T05:05:18.102Z,99.99
2019-05-18T05:06:18.092Z,99.99
2019-05-18T05:07:18.081Z,99.99
2019-05-18T05:08:18.072Z,99.99
2019-05-18T05:09:18.065Z,99.99
2019-05-18T05:10:18.069Z,99.99
2019-05-18T05:11:18.053Z,99.99
2019-05-18T05:12:18.043Z,99.99
2019-05-18T05:13:18.031Z,99.99
2019-05-18T05:14:18.026Z,99.99
2019-05-18T05:15:18.025Z,99.99
2019-05-18T05:16:18.019Z,99.99
2019-05-18T05:17:18.008Z,99.99
2019-05-18T05:18:18.006Z,99.99
2019-05-18T05:19:17.994Z,99.99
2019-05-18T05:20:20.337Z,99.99
2019-05-18T05:21:17.982Z,99.99
2019-05-18T05:22:17.977Z,99.99
2019-05-18T05:23:17.967Z,99.99
2019-05-18T05:24:17.966Z,99.99
2019-05-18T05:25:17.958Z,99.99
2019-05-18T05:26:17.950Z,99.99
2019-05-18T05:27:17.957Z,99.99
2019-05-18T05:28:17.939Z,99.99
2019-05-18T05:29:17.934Z,99.99
2019-05-18T05:30:17.928Z,99.99
2019-05-18T05:31:17.924Z,99.99
2019-05-18T05:32:17.922Z,99.99
2019-05-18T05:33:17.977Z,99.99
2019-05-18T05:34:17.905Z,99.99
2019-05-18T05:35:17.906Z,99.99
2019-05-18T05:36:17.922Z,99.99
2019-05-18T05:37:17.883Z,99.99
2019-05-18T05:38:17.882Z,99.99
2019-05-18T05:39:17.879Z,99.99
2019-05-18T05:40:17.872Z,99.99
2019-05-18T05:41:17.889Z,99.99
2019-05-18T05:42:17.860Z,99.99
2019-05-18T05:43:17.857Z,99.99
2019-05-18T05:44:17.854Z,99.99
2019-05-18T05:45:17.845Z,99.99
2019-05-18T05:46:17.847Z,99.99
2019-05-18T05:47:17.839Z,99.99
2019-05-18T05:48:17.835Z,99.99
2019-05-18T05:49:17.827Z,99.99
2019-05-18T05:50:17.823Z,99.99
2019-05-18T05:51:17.821Z,99.99
2019-05-18T05:52:17.817Z,99.99
2019-05-18T05:53:17.811Z,99.99
2019-05-18T05:54:17.808Z,99.99
2019-05-18T05:55:17.802Z,99.99
2019-05-18T05:56:17.802Z,99.99
2019-05-18T05:57:17.796Z,99.99
2019-05-18T05:58:17.799Z,99.99
2019-05-18T05:59:17.795Z,99.99
2019-05-18T06:00:17.786Z,99.99
2019-05-18T06:01:17.792Z,99.99
2019-05-18T06:02:17.785Z,99.99
2019-05-18T06:03:17.781Z,99.99
2019-05-18T06:04:17.775Z,99.99
2019-05-18T06:05:17.771Z,99.99
2019-05-18T06:06:17.772Z,99.87
2019-05-18T06:07:17.769Z,99.99
2019-05-18T06:08:17.770Z,99.99
2019-05-18T06:09:17.764Z,99.99
2019-05-18T06:10:17.758Z,99.99
2019-05-18T06:11:17.760Z,99.58
2019-05-18T06:12:17.769Z,98.62
2019-05-18T06:13:17.748Z,98.24
2019-05-18T06:14:17.757Z,97.47
2019-05-18T06:15:17.742Z,97.95
2019-05-18T06:16:17.744Z,96.94
2019-05-18T06:17:17.742Z,95.98
2019-05-18T06:18:17.737Z,98.57
2019-05-18T06:19:17.739Z,97.14
2019-05-18T06:20:17.738Z,96.56
2019-05-18T06:21:17.730Z,95.89
2019-05-18T06:22:17.730Z,96.22
2019-05-18T06:23:17.740Z,97.66
2019-05-18T06:24:17.725Z,98.28
2019-05-18T06:25:17.733Z,94.74
2019-05-18T06:26:17.723Z,96.37
2019-05-18T06:27:17.715Z,95.60
2019-05-18T06:28:17.717Z,94.02
2019-05-18T06:29:17.711Z,95.03
2019-05-18T06:30:17.733Z,95.94
2019-05-18T06:31:17.709Z,94.98
2019-05-18T06:32:17.707Z,95.56
2019-05-18T06:33:17.706Z,93.63
2019-05-18T06:34:17.705Z,93.44
2019-05-18T06:35:17.702Z,93.35
2019-05-18T06:36:17.699Z,94.07
2019-05-18T06:37:17.697Z,93.88
2019-05-18T06:38:17.694Z,93.40
2019-05-18T06:39:17.697Z,92.24
2019-05-18T06:40:17.698Z,93.01
2019-05-18T06:41:17.691Z,89.51
2019-05-18T06:42:17.741Z,86.34
2019-05-18T06:43:17.692Z,85.33
2019-05-18T06:44:17.684Z,84.37
2019-05-18T06:45:17.685Z,87.63
2019-05-18T06:46:17.687Z,87.44
2019-05-18T06:47:17.685Z,83.89
2019-05-18T06:48:17.688Z,85.52
2019-05-18T06:49:17.683Z,83.84
2019-05-18T06:50:17.698Z,83.80
2019-05-18T06:51:17.684Z,85.71
2019-05-18T06:52:17.690Z,84.12
2019-05-18T06:53:17.682Z,83.36
2019-05-18T06:54:17.696Z,81.63
2019-05-18T06:55:17.687Z,79.52
2019-05-18T06:56:17.684Z,79.55
2019-05-18T06:57:17.691Z,80.22
2019-05-18T06:58:17.686Z,79.99
2019-05-18T06:59:17.695Z,80.61
2019-05-18T07:00:17.686Z,81.57
2019-05-18T07:01:17.688Z,80.22
2019-05-18T07:02:17.689Z,79.88
2019-05-18T07:03:17.688Z,80.17
2019-05-18T07:04:17.692Z,78.06
2019-05-18T07:05:17.720Z,76.42
2019-05-18T07:06:17.694Z,76.90
2019-05-18T07:07:17.708Z,74.50
2019-05-18T07:08:17.693Z,73.25
2019-05-18T07:09:17.696Z,72.96
2019-05-18T07:10:17.694Z,73.35
2019-05-18T07:11:17.701Z,74.63
2019-05-18T07:12:17.700Z,74.05
2019-05-18T07:13:17.693Z,75.69
2019-05-18T07:14:25.416Z,75.98
2019-05-18T07:15:17.714Z,74.57
2019-05-18T07:16:17.703Z,75.54
2019-05-18T07:17:17.710Z,73.51
2019-05-18T07:18:17.782Z,71.88
2019-05-18T07:19:17.714Z,71.81
2019-05-18T07:20:17.714Z,71.24
2019-05-18T07:21:22.176Z,70.41
2019-05-18T07:22:17.857Z,70.60
2019-05-18T07:23:17.727Z,70.12
2019-05-18T07:24:17.813Z,69.96
2019-05-18T07:25:17.740Z,69.96
2019-05-18T07:26:17.737Z,69.19
2019-05-18T07:27:17.725Z,65.88
2019-05-18T07:28:17.735Z,66.27
2019-05-18T07:29:17.735Z,65.78
2019-05-18T07:30:17.740Z,65.94
2019-05-18T07:31:17.738Z,69.02
2019-05-18T07:32:17.745Z,71.14
2019-05-18T07:33:18.720Z,70.56
2019-05-18T07:34:17.755Z,71.24
2019-05-18T07:35:17.750Z,70.41
2019-05-18T07:36:17.753Z,69.83
2019-05-18T07:37:17.759Z,70.50
2019-05-18T07:38:17.761Z,72.47
2019-05-18T07:39:17.775Z,70.44
2019-05-18T07:40:17.762Z,67.07
2019-05-18T07:41:17.765Z,68.04
2019-05-18T07:42:17.771Z,67.78
2019-05-18T07:43:17.773Z,63.79
2019-05-18T07:44:17.789Z,64.18
2019-05-18T07:45:17.777Z,64.08
2019-05-18T07:46:17.779Z,67.74
2019-05-18T07:47:17.785Z,68.93
2019-05-18T07:48:17.787Z,69.13
2019-05-18T07:49:17.793Z,65.75
2019-05-18T07:50:17.804Z,64.89
2019-05-18T07:51:17.799Z,63.92
2019-05-18T07:52:17.802Z,65.08
2019-05-18T07:53:17.809Z,67.68
2019-05-18T07:54:18.747Z,68.77
2019-05-18T07:55:24.773Z,69.00
2019-05-18T07:56:17.818Z,67.27
2019-05-18T07:57:17.821Z,64.86
2019-05-18T07:58:17.834Z,64.11
2019-05-18T07:59:19.843Z,64.50
2019-05-18T08:00:17.827Z,64.43
2019-05-18T08:01:17.834Z,61.34
2019-05-18T08:02:17.839Z,59.60
2019-05-18T08:03:17.845Z,60.99
2019-05-18T08:04:17.858Z,59.53
2019-05-18T08:05:17.850Z,58.40
2019-05-18T08:06:17.877Z,59.98
2019-05-18T08:07:18.751Z,58.82
2019-05-18T08:08:18.757Z,59.01
2019-05-18T08:09:17.872Z,59.01
2019-05-18T08:10:17.881Z,58.75
2019-05-18T08:11:17.882Z,58.85
2019-05-18T08:12:17.885Z,59.72
2019-05-18T08:13:17.892Z,58.27
2019-05-18T08:14:18.004Z,56.04
2019-05-18T08:15:17.902Z,57.04
2019-05-18T08:16:17.899Z,54.59
2019-05-18T08:17:17.904Z,56.56
2019-05-18T08:18:17.912Z,54.21
2019-05-18T08:19:17.950Z,57.50
2019-05-18T08:20:17.925Z,58.30
2019-05-18T08:21:17.956Z,54.13
2019-05-18T08:22:17.927Z,54.11
2019-05-18T08:23:17.979Z,53.21
2019-05-18T08:24:17.940Z,54.05
2019-05-18T08:25:17.943Z,55.21
2019-05-18T08:26:17.947Z,57.63
2019-05-18T08:27:17.970Z,58.89
2019-05-18T08:28:17.962Z,59.69
2019-05-18T08:29:18.021Z,58.82
2019-05-18T08:30:18.012Z,59.01
2019-05-18T08:31:17.979Z,54.47
2019-05-18T08:32:18.984Z,55.24
2019-05-18T08:33:17.986Z,53.96
2019-05-18T08:34:17.990Z,53.93
2019-05-18T08:35:18.011Z,55.19
2019-05-18T08:36:18.010Z,58.37
2019-05-18T08:37:18.005Z,58.70
2019-05-18T08:38:18.009Z,58.02
2019-05-18T08:39:18.037Z,55.19
2019-05-18T08:40:18.024Z,56.18
2019-05-18T08:41:18.023Z,56.28
2019-05-18T08:42:18.027Z,54.93
2019-05-18T08:43:18.079Z,55.43
2019-05-18T08:44:18.070Z,54.35
2019-05-18T08:45:18.043Z,52.61
2019-05-18T08:46:18.044Z,51.42
2019-05-18T08:47:18.075Z,51.97
2019-05-18T08:48:18.050Z,53.71
2019-05-18T08:49:18.112Z,54.29
2019-05-18T08:50:18.069Z,53.91
2019-05-18T08:51:18.072Z,56.03
2019-05-18T08:52:18.070Z,53.91
2019-05-18T08:53:18.078Z,53.71
2019-05-18T08:54:18.078Z,54.87
2019-05-18T08:55:18.094Z,55.26
2019-05-18T08:56:18.104Z,59.44
2019-05-18T08:57:18.111Z,59.08
2019-05-18T08:58:18.118Z,56.11
2019-05-18T08:59:18.113Z,53.11
2019-05-18T09:00:18.114Z,52.73
2019-05-18T09:01:18.117Z,52.82
2019-05-18T09:02:18.115Z,56.43
2019-05-18T09:03:18.126Z,55.58
2019-05-18T09:04:18.137Z,52.58
2019-05-18T09:05:18.144Z,51.42
2019-05-18T09:06:18.141Z,51.42
2019-05-18T09:07:18.145Z,51.04
2019-05-18T09:08:18.161Z,50.94
2019-05-18T09:09:18.157Z,49.39
2019-05-18T09:10:18.161Z,50.94
2019-05-18T09:11:18.214Z,49.95
2019-05-18T09:12:18.185Z,49.27
2019-05-18T09:13:18.284Z,50.33
2019-05-18T09:14:18.185Z,49.37
2019-05-18T09:15:18.188Z,49.85
2019-05-18T09:16:18.196Z,50.82
2019-05-18T09:17:18.220Z,49.65
2019-05-18T09:18:18.226Z,48.88
2019-05-18T09:19:18.218Z,48.79
2019-05-18T09:20:18.215Z,48.97
2019-05-18T09:21:18.225Z,48.79
2019-05-18T09:22:23.221Z,49.75
2019-05-18T09:23:18.235Z,48.39
2019-05-18T09:24:18.235Z,49.24
2019-05-18T09:25:18.273Z,52.46
2019-05-18T09:26:18.263Z,51.52
2019-05-18T09:27:18.369Z,52.61
2019-05-18T09:28:18.256Z,52.54
2019-05-18T09:29:18.278Z,52.37
2019-05-18T09:30:18.291Z,47.23
2019-05-18T09:31:18.285Z,46.07
2019-05-18T09:32:18.291Z,47.50
2019-05-18T09:33:18.300Z,47.02
2019-05-18T09:34:18.288Z,47.40
2019-05-18T09:35:18.301Z,47.50
2019-05-18T09:36:18.342Z,50.62
2019-05-18T09:37:18.305Z,50.14
2019-05-18T09:38:18.316Z,51.16
2019-05-18T09:39:18.318Z,48.64
2019-05-18T09:40:18.328Z,48.39
2019-05-18T09:41:18.387Z,45.09
2019-05-18T09:42:18.508Z,45.18
2019-05-18T09:43:18.365Z,45.28
2019-05-18T09:44:18.485Z,45.65
2019-05-18T09:46:51.505Z,45.09
2019-05-18T09:47:51.483Z,46.04
2019-05-18T09:49:46.036Z,44.41
2019-05-18T09:50:44.952Z,46.74
2019-05-18T09:52:47.447Z,46.77
2019-05-18T09:53:50.690Z,46.11
2019-05-18T09:55:35.887Z,47.10
2019-05-18T09:56:34.959Z,43.40
2019-05-18T09:57:34.820Z,42.24
2019-05-18T09:58:34.822Z,40.95
2019-05-18T09:59:35.577Z,41.78
2019-05-18T10:00:38.682Z,45.09
2019-05-18T10:01:35.015Z,47.71
2019-05-18T10:02:34.887Z,46.86
2019-05-18T10:03:35.135Z,46.67
2019-05-18T10:04:34.905Z,45.42
2019-05-18T10:05:34.876Z,40.52
2019-05-18T10:06:34.900Z,42.64
2019-05-18T10:07:34.884Z,43.71
2019-05-18T10:08:34.908Z,43.30
2019-05-18T10:09:39.377Z,42.89
2019-05-18T10:10:41.888Z,44.13
2019-05-18T10:11:38.425Z,43.16
2019-05-18T10:12:34.917Z,44.49
2019-05-18T10:13:34.925Z,43.41
2019-05-18T10:14:34.964Z,43.89
2019-05-18T10:15:34.944Z,46.53
2019-05-18T10:16:34.970Z,46.38
2019-05-18T10:17:34.954Z,44.95
2019-05-18T10:18:34.997Z,41.26
2019-05-18T10:19:34.976Z,41.24
2019-05-18T10:20:34.965Z,42.09
2019-05-18T10:21:35.179Z,42.07
2019-05-18T10:23:12.376Z,43.99
2019-05-18T10:23:35.000Z,45.17
2019-05-18T10:24:35.126Z,43.43
2019-05-18T10:25:34.999Z,43.60
2019-05-18T10:26:35.013Z,42.44
2019-05-18T10:27:35.036Z,41.45
2019-05-18T10:28:35.043Z,43.87
2019-05-18T10:29:35.036Z,43.09
2019-05-18T10:30:35.076Z,46.43
2019-05-18T10:31:35.162Z,46.55
2019-05-18T10:32:35.108Z,42.40
2019-05-18T10:33:35.054Z,41.05
2019-05-18T10:34:35.063Z,43.76
2019-05-18T10:35:35.059Z,45.82
2019-05-18T10:36:35.085Z,40.79
2019-05-18T10:37:35.079Z,43.12
2019-05-18T10:38:35.107Z,44.06
2019-05-18T10:39:38.432Z,42.72
2019-05-18T10:40:35.231Z,39.22
2019-05-18T10:41:35.135Z,38.44
2019-05-18T10:42:35.132Z,37.52
2019-05-18T10:43:35.124Z,39.06
2019-05-18T10:44:35.125Z,40.19
2019-05-18T10:45:35.144Z,40.95
2019-05-18T10:46:35.136Z,42.09
2019-05-18T10:47:35.157Z,43.35
2019-05-18T10:48:35.271Z,43.35
2019-05-18T10:49:35.168Z,45.53
2019-05-18T10:50:35.919Z,44.02
2019-05-18T10:51:35.177Z,45.14
2019-05-18T10:52:35.191Z,41.93
2019-05-18T10:53:35.322Z,40.19
2019-05-18T10:54:35.220Z,39.90
2019-05-18T10:55:35.271Z,40.47
2019-05-18T10:56:35.216Z,42.58
2019-05-18T10:57:35.457Z,44.04
2019-05-18T10:58:35.237Z,41.01
2019-05-18T11:00:35.249Z,43.85
2019-05-18T11:01:35.463Z,41.90
2019-05-18T11:02:35.573Z,41.10
2019-05-18T11:03:35.881Z,41.88
2019-05-18T11:04:35.893Z,42.46
2019-05-18T11:05:35.272Z,42.85
2019-05-18T11:06:35.444Z,42.10
2019-05-18T11:07:35.299Z,42.31
2019-05-18T11:08:38.277Z,42.72
2019-05-18T11:09:35.302Z,41.24
2019-05-18T11:10:35.337Z,40.97
2019-05-18T11:11:35.430Z,42.91
2019-05-18T11:12:35.321Z,42.14
2019-05-18T11:13:35.325Z,41.26
2019-05-18T11:14:35.331Z,42.16
2019-05-18T11:15:35.330Z,42.16
2019-05-18T11:16:35.353Z,41.89
2019-05-18T11:17:35.354Z,40.91
2019-05-18T11:18:35.358Z,39.75
2019-05-18T11:19:35.356Z,40.72
2019-05-18T11:20:35.371Z,40.72
2019-05-18T11:21:35.366Z,39.55
2019-05-18T11:22:35.398Z,37.87
2019-05-18T11:23:43.391Z,39.04
2019-05-18T11:24:35.413Z,41.19
2019-05-18T11:25:35.387Z,39.16
2019-05-18T11:26:35.408Z,38.18
2019-05-18T11:27:35.402Z,36.84
2019-05-18T11:28:35.395Z,38.48
2019-05-18T11:29:35.463Z,39.28
2019-05-18T11:30:35.405Z,37.62
2019-05-18T11:31:35.414Z,36.94
2019-05-18T11:32:35.425Z,37.05
2019-05-18T11:33:35.423Z,36.19
2019-05-18T11:34:35.433Z,35.12
2019-05-18T11:35:35.438Z,37.19
2019-05-18T11:36:35.443Z,36.11
2019-05-18T11:37:35.447Z,35.80
2019-05-18T11:38:35.459Z,36.08
2019-05-18T11:39:35.468Z,37.04
2019-05-18T11:40:35.472Z,36.84
2019-05-18T11:41:35.489Z,37.99
2019-05-18T11:42:35.480Z,37.19
2019-05-18T11:43:35.489Z,38.42
2019-05-18T11:44:35.491Z,39.18
2019-05-18T11:45:35.509Z,40.73
2019-05-18T11:46:35.511Z,40.25
2019-05-18T11:47:35.516Z,40.73
2019-05-18T11:48:35.526Z,40.91
2019-05-18T11:49:35.527Z,40.79
2019-05-18T11:50:35.536Z,41.16
2019-05-18T11:51:35.544Z,43.93
2019-05-18T11:52:35.550Z,44.51
2019-05-18T11:53:35.551Z,45.00
2019-05-18T11:54:35.557Z,45.00
2019-05-18T11:55:35.569Z,44.90
2019-05-18T11:56:35.574Z,45.31
2019-05-18T11:57:35.582Z,45.14
2019-05-18T11:58:35.598Z,44.48
2019-05-18T11:59:35.619Z,42.74
2019-05-18T12:00:35.610Z,43.90
2019-05-18T12:01:35.605Z,42.15
2019-05-18T12:02:35.611Z,43.73
2019-05-18T12:03:35.619Z,42.08
2019-05-18T12:04:35.628Z,41.78
2019-05-18T12:05:35.629Z,42.18
2019-05-18T12:06:35.632Z,41.22
2019-05-18T12:07:35.643Z,42.19
2019-05-18T12:08:35.641Z,39.37
2019-05-18T12:09:35.660Z,39.08
2019-05-18T12:10:35.675Z,39.84
2019-05-18T12:11:35.664Z,39.26
2019-05-18T12:12:35.683Z,40.52
2019-05-18T12:13:35.674Z,37.76
2019-05-18T12:14:35.683Z,37.85
2019-05-18T12:15:35.689Z,37.37
2019-05-18T12:16:35.703Z,37.16
2019-05-18T12:17:35.698Z,37.70
2019-05-18T12:18:35.712Z,38.37
2019-05-18T12:19:35.715Z,38.27
2019-05-18T12:20:35.718Z,39.32
2019-05-18T12:21:35.721Z,40.17
2019-05-18T12:22:35.737Z,41.43
2019-05-18T12:23:35.738Z,42.21
2019-05-18T12:24:35.758Z,40.97
2019-05-18T12:25:35.741Z,40.08
2019-05-18T12:26:35.750Z,41.80
2019-05-18T12:27:35.759Z,40.54
2019-05-18T12:28:35.773Z,40.23
2019-05-18T12:29:35.789Z,39.94
2019-05-18T12:30:35.785Z,40.40
2019-05-18T12:31:35.778Z,40.89
2019-05-18T12:32:35.774Z,41.06
2019-05-18T12:33:35.783Z,41.83
2019-05-18T12:34:35.781Z,41.83
2019-05-18T12:35:35.788Z,42.03
2019-05-18T12:36:35.802Z,41.55
2019-05-18T12:37:35.792Z,44.74
2019-05-18T12:38:35.798Z,44.37
2019-05-18T12:39:35.799Z,42.60
2019-05-18T12:40:35.808Z,41.26
2019-05-18T12:41:35.810Z,39.41
2019-05-18T12:42:35.807Z,39.01
2019-05-18T12:43:35.827Z,39.69
2019-05-18T12:44:35.815Z,40.26
2019-05-18T12:45:35.833Z,39.59
2019-05-18T12:46:35.833Z,39.01
2019-05-18T12:47:35.836Z,40.17
2019-05-18T12:48:35.839Z,40.08
2019-05-18T12:49:35.836Z,38.95
2019-05-18T12:50:35.845Z,38.29
2019-05-18T12:51:35.848Z,38.96
2019-05-18T12:52:35.860Z,36.77
2019-05-18T12:53:35.859Z,36.08
2019-05-18T12:54:46.246Z,36.18
2019-05-18T12:55:35.873Z,35.50
2019-05-18T12:56:35.870Z,34.74
2019-05-18T12:57:35.877Z,34.74